Portada
METAR-TAF:

METAR-TAF

Aeropuertos :

Aeropuerto Internacional de Harbin

Harbin, China

latitud: 45-45N, longitud: 126-46E, altitud: 143 m

Observación

El informe se hizo hace 42 minutos, a las 01:00 UTC
Viento 6 kt del sur-suroeste, variando entre sur-sureste y suroeste
Temperatura 21°C
Humedad 56%
Presión 1007 hPa
Visibilidad 10 km o más
sin nubes por debajo de 1500 m y sin presencia de cumulonimbus.

METAR: ZYHB 280100Z 20003MPS 160V230 CAVOK 21/12 Q1007 NOSIG

Hora: 09:42 (01:42 UTC)

Pronóstico

El informe se hizo hace 4 horas y 36 minutos, a las 21:06 UTC
Pronóstico válido del 28 a las 00 UTC al 28 a las 24 UTC
Viento 8 kt del sur-suroeste
Visibilidad 10 km o más
sin nubes por debajo de 1500 m y sin presencia de cumulonimbus.

TAF: ZYHB 272106Z 2800/2824 21004MPS CAVOK TX26/2806Z TN13/2821Z

Observaciones y pronósticos meteorológicos de más de 4000 aeropuertos (mensajes METAR y TAF).

Los puntos amarillos y rojos representan las estaciones disponibles.

Ponga el ratón en el punto deseado para ver el nombre de la estación.

Haga clic para ver las observaciones y los pronósticos meteorológicos.

Para cambiar el mapa : haga clic en los botones verdes con una cruz de color negro para hacer un zoom, en el botón verde con un guión para alejar o en las flechas verdes para mapas adyacentes.


METAR-TAF: